Latest Weather Observations for Port Hedland

IDW60801

Issued at 1:13 pm WST Tuesday 10 December 2019 (issued every 10 minutes, with the page automatically refreshed every 10 minutes)

About weather observations | Map of weather stations | Latest weather observations for WA | Other Formats
Station Details ID: 004032 Name: PORT HEDLAND AIRPORT Lat: -20.37 Lon: 118.63 Height: 6.4 m
Data from the previous 72 hours. | See also: Recent months at Port Hedland
Date/Time
WST
Temp
°C
App
Temp
°C
Dew
Point
°C
Rel
Hum
%
Delta-T
°C
Wind Press
QNH
hPa
Press
MSL
hPa
Rain since
9am
mm
Dir  Spd
km/h
Gust
km/h
Spd
kts
Gust
kts
10/01:00pm 34.7 34.3 21.7 46 8.9 NW 26 33 14 18 1007.6 1007.5 0.0
10/12:30pm 35.1 34.9 22.1 47 8.9 NW 26 33 14 18 1007.8 1007.7 0.0
10/12:00pm 34.3 33.0 22.4 50 8.2 NW 33 43 18 23 1007.8 1007.7 0.0
10/11:30am 35.8 33.5 19.3 38 10.9 NW 30 37 16 20 1007.6 1007.5 0.0
10/11:00am 35.9 36.5 22.8 46 9.1 NNW 24 30 13 16 1008.1 1008.0 0.0
10/10:30am 36.2 35.1 18.7 35 11.5 NNW 22 28 12 15 1008.0 1007.9 0.0
10/10:00am 35.6 34.3 18.2 35 11.4 NW 22 28 12 15 1007.9 1007.8 0.0
10/09:30am 36.3 34.3 16.5 31 12.6 NNW 22 32 12 17 1007.9 1007.8 0.0
10/09:00am 39.0 35.5 5.6 13 18.4 SW 13 20 7 11 1007.8 1007.7 0.0
10/08:30am 36.6 33.7 6.7 16 16.6 WSW 11 19 6 10 1008.0 1007.9 0.0
10/08:00am 34.8 32.6 9.3 21 14.6 WSW 11 15 6 8 1008.0 1007.9 0.0
10/07:30am 32.6 30.0 9.4 24 13.1 SW 13 20 7 11 1007.9 1007.8 0.0
10/07:00am 30.7 28.0 11.6 31 11.1 WSW 17 24 9 13 1007.5 1007.4 0.0
10/06:30am 28.3 27.7 13.4 40 8.8 SW 9 13 5 7 1007.4 1007.3 0.0
10/06:00am 27.4 27.2 13.7 43 8.1 SSW 7 11 4 6 1007.7 1007.6 0.0
10/05:30am 25.5 24.5 14.6 51 6.5 NW 13 22 7 12 1007.4 1007.3 0.0
10/05:00am 26.3 26.6 15.0 49 6.8 SW 7 13 4 7 1007.0 1006.9 0.0
10/04:30am 27.4 25.5 15.1 47 7.5 W 19 24 10 13 1006.1 1006.0 0.0
10/04:00am 27.7 25.3 15.4 47 7.5 W 22 26 12 14 1005.9 1005.8 0.0
10/03:30am 27.1 25.7 17.0 54 6.3 W 20 26 11 14 1005.8 1005.7 0.0
10/03:00am 26.8 26.3 17.8 57 5.7 W 17 20 9 11 1006.0 1005.9 0.0
10/02:30am 26.0 26.3 17.9 61 5.1 W 13 17 7 9 1006.0 1005.9 0.0
10/02:00am 26.7 26.7 18.0 59 5.5 WSW 15 17 8 9 1006.1 1006.0 0.0
10/01:30am 26.2 26.4 18.6 63 4.8 WSW 15 17 8 9 1006.1 1006.0 0.0
10/01:00am 27.0 28.0 18.6 60 5.4 WSW 11 13 6 7 1006.3 1006.2 0.0
10/12:30am 26.9 27.7 19.0 62 5.1 W 13 17 7 9 1006.5 1006.4 0.0
10/12:00am 27.8 29.3 18.8 58 5.8 WSW 9 11 5 6 1006.9 1006.8 0.0
 
Date/Time
WST
Temp
°C
App
Temp
°C
Dew
Point
°C
Rel
Hum
%
Delta-T
°C
Wind Press
QNH
hPa
Press
MSL
hPa
Rain since
9am
mm
Dir  Spd
km/h
Gust
km/h
Spd
kts
Gust
kts
09/11:30pm 28.9 29.8 19.2 55 6.3 WSW 13 17 7 9 1006.9 1006.8 0.0
09/11:00pm 29.7 29.0 19.4 54 6.7 W 22 28 12 15 1007.0 1006.9 0.0
09/10:30pm 29.9 29.4 19.0 52 7.1 W 20 26 11 14 1007.1 1007.0 0.0
09/10:00pm 30.5 29.8 18.6 49 7.7 W 20 26 11 14 1007.2 1007.1 0.0
09/09:30pm 30.9 29.3 18.3 47 8.1 W 24 32 13 17 1007.1 1007.0 0.0
09/09:00pm 31.3 29.7 18.3 46 8.4 W 24 32 13 17 1006.8 1006.7 0.0
09/08:30pm 31.5 29.3 17.0 41 9.2 W 24 32 13 17 1006.7 1006.6 0.0
09/08:00pm 32.3 29.6 15.7 36 10.4 W 24 33 13 18 1006.4 1006.3 0.0
09/07:30pm 32.9 30.0 15.0 34 11.1 W 24 33 13 18 1006.2 1006.1 0.0
09/07:00pm 34.0 29.8 13.5 29 12.5 W 28 39 15 21 1005.8 1005.7 0.0
09/06:30pm 34.7 31.6 15.6 32 12.0 W 26 33 14 18 1005.5 1005.4 0.0
09/06:00pm 36.3 32.6 15.9 29 13.0 WNW 30 43 16 23 1005.0 1004.9 0.0
09/05:30pm 36.9 33.4 17.5 32 12.6 WNW 32 37 17 20 1004.9 1004.8 0.0
09/05:00pm 37.8 34.2 17.7 30 13.1 WNW 33 41 18 22 1004.6 1004.5 0.0
09/04:30pm 39.2 33.3 13.6 22 15.9 WNW 37 48 20 26 1004.5 1004.4 0.0
09/04:00pm 40.7 34.6 11.7 18 17.6 WNW 35 44 19 24 1004.3 1004.2 0.0
09/03:30pm 41.5 35.4 10.6 16 18.5 WNW 33 41 18 22 1004.5 1004.4 0.0
09/03:00pm 42.6 36.8 11.5 16 19.0 NW 33 43 18 23 1004.6 1004.5 0.0
09/02:30pm 42.0 35.5 9.0 14 19.4 NW 33 39 18 21 1004.9 1004.8 0.0
09/02:00pm 42.1 37.0 12.0 17 18.5 NW 30 35 16 19 1005.1 1005.0 0.0
09/01:30pm 42.4 37.8 12.2 17 18.6 NW 28 35 15 19 1005.3 1005.2 0.0
09/01:00pm 43.6 39.0 6.7 11 21.2 NNW 20 26 11 14 1005.6 1005.5 0.0
09/12:30pm 44.3 40.0 0.8 7 23.0 SW 13 28 7 15 1005.8 1005.7 0.0
09/12:00pm 43.6 39.2 0.3 7 22.7 NE 13 24 7 13 1006.3 1006.2 0.0
09/11:30am 43.8 39.7 2.3 8 22.3 SE 13 24 7 13 1006.8 1006.7 0.0
09/11:00am 43.6 38.7 2.1 8 22.3 ESE 17 35 9 19 1007.3 1007.2 0.0
09/10:30am 42.6 37.3 3.1 9 21.4 SE 20 35 11 19 1007.6 1007.5 0.0
09/10:00am 41.9 35.4 2.6 9 21.1 SE 26 39 14 21 1008.0 1007.9 0.0
09/09:30am 40.8 34.4 3.2 10 20.2 SSE 26 39 14 21 1008.3 1008.2 0.0
09/09:00am 39.5 33.5 3.6 11 19.3 SSE 24 37 13 20 1008.4 1008.3 0.0
09/08:30am 38.2 32.7 3.8 12 18.4 S 22 33 12 18 1008.7 1008.6 0.0
09/08:00am 36.7 31.2 5.9 15 16.9 S 24 33 13 18 1008.5 1008.4 0.0
09/07:30am 34.4 30.2 5.8 17 15.4 SSW 17 20 9 11 1008.8 1008.7 0.0
09/07:00am 32.0 28.8 7.0 21 13.6 SW 13 17 7 9 1008.7 1008.6 0.0
09/06:30am 29.7 26.5 7.0 24 12.2 SW 13 17 7 9 1008.4 1008.3 0.0
09/06:00am 27.3 24.2 7.2 28 10.7 SW 13 19 7 10 1008.2 1008.1 0.0
09/05:30am 25.6 22.1 7.2 31 9.7 SW 15 17 8 9 1007.9 1007.8 0.0
09/05:00am 25.5 22.2 8.1 33 9.3 SW 15 17 8 9 1007.5 1007.4 0.0
09/04:30am 26.6 23.3 8.1 31 10.0 SW 15 17 8 9 1007.0 1006.9 0.0
09/04:00am 27.3 23.5 7.7 29 10.5 SSW 17 19 9 10 1006.7 1006.6 0.0
09/03:30am 28.3 24.1 8.1 28 11.0 SW 20 22 11 12 1006.5 1006.4 0.0
09/03:00am 28.0 24.6 10.7 34 9.8 SW 19 20 10 11 1006.3 1006.2 0.0
09/02:30am 28.3 25.9 12.6 38 9.2 SW 17 20 9 11 1006.1 1006.0 0.0
09/02:00am 28.6 26.3 14.1 41 8.7 SW 19 20 10 11 1006.0 1005.9 0.0
09/01:30am 28.4 26.9 16.7 49 7.3 SW 20 22 11 12 1006.1 1006.0 0.0
09/01:00am 27.0 27.2 18.6 60 5.4 SW 15 17 8 9 1006.2 1006.1 0.0
09/12:30am 26.9 30.4 19.5 64 4.8 CALM 0 6 0 3 1006.5 1006.4 0.0
09/12:00am 27.2 29.2 18.8 60 5.4 S 6 7 3 4 1006.7 1006.6 0.0
 
Date/Time
WST
Temp
°C
App
Temp
°C
Dew
Point
°C
Rel
Hum
%
Delta-T
°C
Wind Press
QNH
hPa
Press
MSL
hPa
Rain since
9am
mm
Dir  Spd
km/h
Gust
km/h
Spd
kts
Gust
kts
08/11:30pm 28.5 31.9 20.2 60 5.5 W 2 7 1 4 1006.9 1006.8 0.0
08/11:00pm 28.1 29.8 19.3 58 5.7 ESE 9 15 5 8 1007.2 1007.1 0.0
08/10:30pm 30.0 30.7 20.5 56 6.3 W 17 19 9 10 1007.0 1006.9 0.0
08/10:00pm 30.7 30.7 19.7 52 7.2 W 19 20 10 11 1007.2 1007.1 0.0
08/09:30pm 31.7 31.0 18.7 46 8.4 W 20 26 11 14 1007.1 1007.0 0.0
08/09:00pm 32.8 30.9 16.6 38 10.3 W 22 28 12 15 1007.0 1006.9 0.0
08/08:30pm 33.8 30.8 14.8 32 11.7 W 24 30 13 16 1006.8 1006.7 0.0
08/08:00pm 34.2 30.9 14.1 29 12.3 W 24 32 13 17 1006.8 1006.7 0.0
08/07:30pm 34.5 31.6 13.9 29 12.6 W 22 28 12 15 1006.6 1006.5 0.0
08/07:00pm 35.4 31.4 14.1 28 13.1 W 28 37 15 20 1006.3 1006.2 0.0
08/06:30pm 36.5 32.2 13.3 25 14.2 W 28 37 15 20 1006.0 1005.9 0.0
08/06:00pm 37.1 33.8 15.0 27 13.9 W 26 35 14 19 1005.7 1005.6 0.0
08/05:30pm 37.6 33.5 16.5 28 13.5 W 33 43 18 23 1005.4 1005.3 0.0
08/05:00pm 37.0 33.6 19.0 34 11.9 WNW 35 50 19 27 1005.2 1005.1 0.0
08/04:30pm 38.8 32.6 15.8 25 14.7 WNW 43 56 23 30 1005.1 1005.0 0.0
08/04:00pm 40.5 34.7 13.9 21 16.7 WNW 37 48 20 26 1005.0 1004.9 0.0
08/03:30pm 41.0 36.1 14.3 20 16.8 WNW 33 44 18 24 1005.1 1005.0 0.0
08/03:00pm 41.7 36.1 13.4 19 17.7 NW 35 44 19 24 1005.2 1005.1 0.0
08/02:30pm 41.6 37.1 14.8 20 17.0 NW 32 44 17 24 1005.4 1005.3 0.0
08/02:25pm 42.6 38.9 14.9 20 17.7 WNW 28 43 15 23 1005.4 1005.3 0.0
08/02:00pm 44.7 39.3 1.1 7 23.2 SSW 19 28 10 15 1005.8 1005.7 0.0
08/01:30pm 43.9 38.8 0.5 7 22.8 SW 17 35 9 19 1006.0 1005.9 0.0
08/01:00pm 44.9 38.9 1.2 7 23.3 SSW 22 35 12 19 1006.4 1006.3 0.0
08/12:30pm 43.2 38.7 0.0 7 22.4 S 13 30 7 16 1006.8 1006.7 0.0
08/12:00pm 43.2 38.7 0.0 7 22.4 SSE 13 20 7 11 1007.3 1007.2 0.0
08/11:30am 43.0 38.4 1.7 8 21.9 ESE 15 26 8 14 1007.5 1007.4 0.0
08/11:00am 42.6 36.9 3.1 9 21.4 S 22 43 12 23 1008.2 1008.1 0.0
08/10:30am 42.0 36.3 2.6 9 21.1 S 22 35 12 19 1008.4 1008.3 0.0
08/10:00am 41.3 35.1 2.1 9 20.8 SSE 24 35 13 19 1008.7 1008.6 0.0
08/09:30am 40.1 32.8 2.7 10 19.8 S 30 43 16 23 1008.9 1008.8 0.0
08/09:00am 38.9 31.6 4.4 12 18.7 SSE 32 44 17 24 1009.2 1009.1 0.0
08/08:30am 38.3 31.7 6.1 14 17.8 S 30 46 16 25 1009.1 1009.0 0.0
08/08:00am 36.5 31.6 8.4 18 16.0 S 24 33 13 18 1009.1 1009.0 0.0
08/07:30am 33.7 30.7 12.1 27 12.8 S 19 26 10 14 1009.0 1008.9 0.0
08/07:28am 33.5 31.2 13.0 29 12.3 S 17 26 9 14 1009.1 1009.0 0.0
08/07:00am 28.5 30.1 18.3 54 6.5 SSE 7 11 4 6 1009.1 1009.0 0.0
08/06:30am 27.0 27.7 18.0 58 5.7 SSE 11 17 6 9 1008.8 1008.7 0.0
08/06:00am 24.5 26.4 20.6 79 2.6 WSW 11 15 6 8 1008.2 1008.1 0.0
08/05:30am 24.4 24.9 20.1 77 2.8 SW 17 17 9 9 1007.6 1007.5 0.0
08/05:00am 24.5 25.6 20.4 78 2.7 SW 15 19 8 10 1007.2 1007.1 0.0
08/04:30am 25.0 27.3 22.1 84 1.9 WSW 13 17 7 9 1006.9 1006.8 0.0
08/04:00am 26.1 27.9 22.6 81 2.4 WSW 17 20 9 11 1006.7 1006.6 0.0
08/03:30am 27.6 29.6 23.0 76 3.1 W 17 22 9 12 1006.6 1006.5 0.0
08/03:00am 27.3 29.6 22.7 76 3.1 W 15 20 8 11 1006.7 1006.6 0.0
08/02:30am 27.7 29.3 22.9 75 3.3 WNW 19 22 10 12 1006.8 1006.7 0.0
08/02:00am 27.9 29.3 22.8 74 3.5 W 20 24 11 13 1006.9 1006.8 0.0
08/01:30am 28.2 29.7 23.1 74 3.5 W 20 28 11 15 1007.1 1007.0 0.0
08/01:00am 28.7 29.7 22.9 71 4.0 W 22 28 12 15 1007.4 1007.3 0.0
08/12:30am 28.8 29.9 22.3 68 4.4 W 20 28 11 15 1007.7 1007.6 0.0
08/12:00am 29.1 29.3 21.3 62 5.2 W 22 28 12 15 1008.0 1007.9 0.0
 
Date/Time
WST
Temp
°C
App
Temp
°C
Dew
Point
°C
Rel
Hum
%
Delta-T
°C
Wind Press
QNH
hPa
Press
MSL
hPa
Rain since
9am
mm
Dir  Spd
km/h
Gust
km/h
Spd
kts
Gust
kts
07/11:30pm 29.2 29.3 21.2 62 5.3 W 22 28 12 15 1008.5 1008.4 0.0
07/11:00pm 29.7 29.2 20.8 58 5.9 WNW 24 30 13 16 1008.7 1008.6 0.0
07/10:30pm 29.7 28.9 20.0 56 6.4 W 24 30 13 16 1008.8 1008.7 0.0
07/10:00pm 29.5 29.6 20.4 58 6.0 W 20 26 11 14 1008.9 1008.8 0.0
07/09:30pm 29.6 28.9 20.2 57 6.2 W 24 32 13 17 1009.0 1008.9 0.0
07/09:00pm 29.8 29.8 20.1 56 6.4 WNW 20 28 11 15 1009.0 1008.9 0.0
07/08:30pm 29.2 30.9 20.9 61 5.5 WNW 13 19 7 10 1009.0 1008.9 0.0
07/08:00pm 29.7 30.5 21.4 61 5.6 WNW 19 24 10 13 1008.7 1008.6 0.0
07/07:30pm 30.1 30.2 21.2 59 6.0 WNW 22 28 12 15 1008.3 1008.2 0.0
07/07:00pm 30.5 29.6 20.7 55 6.5 WNW 26 32 14 17 1007.8 1007.7 0.0
07/06:30pm 31.3 29.9 19.6 49 7.7 WNW 26 33 14 18 1007.7 1007.6 0.0
07/06:00pm 32.7 30.6 18.1 42 9.4 WNW 26 35 14 19 1007.5 1007.4 0.0
07/05:30pm 33.8 29.8 16.2 35 11.1 WNW 32 39 17 21 1007.4 1007.3 0.0
07/05:00pm 35.3 31.4 15.6 31 12.4 WNW 30 37 16 20 1007.1 1007.0 0.0
07/04:30pm 36.5 31.5 13.3 25 14.2 WNW 32 41 17 22 1007.0 1006.9 0.0
07/04:00pm 37.4 31.9 10.7 20 15.8 WNW 30 39 16 21 1007.0 1006.9 0.0
07/03:30pm 37.7 33.3 13.0 23 15.1 WNW 28 35 15 19 1007.1 1007.0 0.0
07/03:00pm 38.6 35.4 16.3 27 14.3 WNW 28 35 15 19 1007.2 1007.1 0.0
07/02:30pm 37.6 34.5 17.6 31 13.0 NW 30 37 16 20 1007.5 1007.4 0.0
07/02:00pm 37.7 34.3 17.7 31 13.1 NW 32 39 17 21 1007.8 1007.7 0.0
07/01:30pm 38.7 35.6 17.5 29 13.8 NW 30 39 16 21 1008.0 1007.9 0.0

Other formats

Comma delimited format used in spreadsheet applications
http://www.bom.gov.au/fwo/IDW60801/IDW60801.94312.axf

JavaScript Object Notation format (JSON) in row-major order
http://www.bom.gov.au/fwo/IDW60801/IDW60801.94312.json

Data quality

Most of these data are generated automatically and are frequently updated. Quality checks on data are not normally performed. It is possible for incorrect values to appear. Refer to information at About Latest Weather Observations and please check the disclaimer before using these data.